CPA169 EDDF-EGLL
Flight info
| Callsign | CPA169 |
|---|---|
| Flight time | 1h 14m |
| Altitude | 40000 |
| Route | OBOKA5G/25C OBOKA Z29 TORNU DCT ABNED L980 LOGAN |
| Aircraft | A359/H-SDE2E3GHIJ3J4J5LM1ORWXY/LB1D1 |
Departure
| Time | 2026-05-05 11:04 |
|---|---|
| Airport | Frankfurt Main Airport (EDDF) |
Arrival
| Time | 2026-05-05 12:18 |
|---|---|
| Airport | London Heathrow Airport (EGLL) |
| Time | Latitude | Longitude | Altitude | Speed | Heading |
|---|---|---|---|---|---|
| 2026-05-05 10:35 | 50.04593 | 8.57051 | 364 ft | 0 kts | 60° |
| 2026-05-05 10:50 | 50.04591 | 8.57043 | 355 ft | 2 kts | 60° |
| 2026-05-05 10:50 | 50.04581 | 8.57017 | 365 ft | 3 kts | 66° |
| 2026-05-05 10:50 | 50.04574 | 8.56988 | 362 ft | 3 kts | 75° |
| 2026-05-05 10:51 | 50.04570 | 8.56959 | 364 ft | 3 kts | 88° |
| 2026-05-05 10:51 | 50.04570 | 8.56931 | 365 ft | 3 kts | 108° |
| 2026-05-05 10:51 | 50.04575 | 8.56912 | 365 ft | 3 kts | 141° |
| 2026-05-05 10:51 | 50.04578 | 8.56904 | 365 ft | 2 kts | 182° |
| 2026-05-05 10:52 | 50.04582 | 8.56903 | 365 ft | 3 kts | 193° |
| 2026-05-05 10:54 | 50.04557 | 8.56896 | 364 ft | 6 kts | 190° |
| 2026-05-05 10:54 | 50.04516 | 8.56883 | 358 ft | 6 kts | 193° |
| 2026-05-05 10:54 | 50.04485 | 8.56885 | 365 ft | 2 kts | 154° |
| 2026-05-05 10:54 | 50.04481 | 8.56952 | 360 ft | 13 kts | 70° |
| 2026-05-05 10:55 | 50.04516 | 8.57099 | 361 ft | 16 kts | 70° |
| 2026-05-05 10:55 | 50.04556 | 8.57265 | 361 ft | 18 kts | 70° |
| 2026-05-05 10:55 | 50.04596 | 8.57443 | 360 ft | 13 kts | 79° |
| 2026-05-05 10:55 | 50.04541 | 8.57525 | 364 ft | 13 kts | 150° |
| 2026-05-05 10:56 | 50.04512 | 8.57551 | 364 ft | 0 kts | 150° |
| 2026-05-05 10:57 | 50.04508 | 8.57555 | 364 ft | 5 kts | 150° |
| 2026-05-05 10:57 | 50.04458 | 8.57638 | 363 ft | 13 kts | 98° |
| 2026-05-05 10:57 | 50.04490 | 8.57799 | 359 ft | 18 kts | 69° |
| 2026-05-05 10:57 | 50.04537 | 8.57994 | 360 ft | 20 kts | 69° |
| 2026-05-05 10:58 | 50.04568 | 8.58128 | 357 ft | 13 kts | 69° |
| 2026-05-05 10:58 | 50.04608 | 8.58292 | 362 ft | 18 kts | 69° |
| 2026-05-05 10:58 | 50.04642 | 8.58437 | 358 ft | 2 kts | 69° |
| 2026-05-05 10:58 | 50.04649 | 8.58467 | 363 ft | 0 kts | 69° |
| 2026-05-05 10:59 | 50.04653 | 8.58482 | 360 ft | 4 kts | 69° |
| 2026-05-05 10:59 | 50.04656 | 8.58548 | 365 ft | 6 kts | 120° |
| 2026-05-05 10:59 | 50.04646 | 8.58557 | 365 ft | 0 kts | 153° |
| 2026-05-05 11:01 | 50.04638 | 8.58563 | 364 ft | 4 kts | 156° |
| 2026-05-05 11:01 | 50.04598 | 8.58586 | 363 ft | 4 kts | 160° |
| 2026-05-05 11:01 | 50.04597 | 8.58586 | 363 ft | 0 kts | 160° |
| 2026-05-05 11:02 | 50.04561 | 8.58606 | 363 ft | 13 kts | 160° |
| 2026-05-05 11:03 | 50.04483 | 8.58572 | 366 ft | 12 kts | 248° |
| 2026-05-05 11:03 | 50.04428 | 8.58340 | 364 ft | 52 kts | 250° |
| 2026-05-05 11:03 | 50.04208 | 8.57421 | 364 ft | 126 kts | 250° |
| 2026-05-05 11:03 | 50.03829 | 8.55846 | 413 ft | 179 kts | 249° |
| 2026-05-05 11:04 | 50.03408 | 8.54142 | 1439 ft | 164 kts | 249° |
| 2026-05-05 11:04 | 50.03006 | 8.52513 | 2486 ft | 155 kts | 248° |
| 2026-05-05 11:04 | 50.02595 | 8.50926 | 3096 ft | 167 kts | 245° |
| 2026-05-05 11:04 | 50.01889 | 8.49322 | 3455 ft | 192 kts | 225° |
| 2026-05-05 11:05 | 50.00750 | 8.48202 | 4074 ft | 201 kts | 200° |
| 2026-05-05 11:05 | 49.99369 | 8.47729 | 4885 ft | 205 kts | 188° |
| 2026-05-05 11:05 | 49.97946 | 8.47446 | 5730 ft | 207 kts | 187° |
| 2026-05-05 11:05 | 49.96513 | 8.47146 | 6612 ft | 209 kts | 189° |
| 2026-05-05 11:06 | 49.95072 | 8.46621 | 7335 ft | 222 kts | 195° |
| 2026-05-05 11:06 | 49.93513 | 8.45916 | 7952 ft | 241 kts | 196° |
| 2026-05-05 11:06 | 49.91925 | 8.44962 | 8826 ft | 249 kts | 209° |
| 2026-05-05 11:06 | 49.90676 | 8.43092 | 9861 ft | 255 kts | 234° |
| 2026-05-05 11:07 | 49.89734 | 8.40732 | 10826 ft | 259 kts | 238° |
| 2026-05-05 11:07 | 49.88890 | 8.38234 | 11850 ft | 264 kts | 246° |
| 2026-05-05 11:07 | 49.88420 | 8.35427 | 12732 ft | 278 kts | 258° |
| 2026-05-05 11:07 | 49.88369 | 8.32303 | 13228 ft | 304 kts | 277° |
| 2026-05-05 11:08 | 49.89200 | 8.29163 | 13642 ft | 331 kts | 304° |
| 2026-05-05 11:08 | 49.90812 | 8.26461 | 14065 ft | 351 kts | 315° |
| 2026-05-05 11:08 | 49.92624 | 8.23822 | 14684 ft | 362 kts | 315° |
| 2026-05-05 11:08 | 49.94472 | 8.21104 | 15494 ft | 369 kts | 314° |
| 2026-05-05 11:09 | 49.96340 | 8.18319 | 16289 ft | 375 kts | 314° |
| 2026-05-05 11:09 | 49.98233 | 8.15474 | 17113 ft | 381 kts | 314° |
| 2026-05-05 11:09 | 50.00145 | 8.12586 | 17967 ft | 386 kts | 313° |
| 2026-05-05 11:09 | 50.02084 | 8.09646 | 18734 ft | 392 kts | 313° |
| 2026-05-05 11:10 | 50.04043 | 8.06670 | 19486 ft | 396 kts | 313° |
| 2026-05-05 11:10 | 50.06045 | 8.03622 | 20256 ft | 400 kts | 313° |
| 2026-05-05 11:10 | 50.08047 | 8.00570 | 21015 ft | 404 kts | 313° |
| 2026-05-05 11:10 | 50.10064 | 7.97491 | 21756 ft | 409 kts | 313° |
| 2026-05-05 11:11 | 50.12101 | 7.94377 | 22484 ft | 413 kts | 313° |
| 2026-05-05 11:11 | 50.14137 | 7.91261 | 23197 ft | 417 kts | 313° |
| 2026-05-05 11:11 | 50.16244 | 7.88034 | 23852 ft | 422 kts | 313° |
| 2026-05-05 11:11 | 50.18319 | 7.84849 | 24462 ft | 426 kts | 313° |
| 2026-05-05 11:12 | 50.20438 | 7.81593 | 25085 ft | 429 kts | 313° |
| 2026-05-05 11:12 | 50.22572 | 7.78309 | 25708 ft | 432 kts | 312° |
| 2026-05-05 11:12 | 50.24804 | 7.75131 | 26324 ft | 439 kts | 319° |
| 2026-05-05 11:12 | 50.27393 | 7.72539 | 26948 ft | 446 kts | 330° |
| 2026-05-05 11:13 | 50.30226 | 7.70494 | 27569 ft | 451 kts | 333° |
| 2026-05-05 11:13 | 50.33118 | 7.68537 | 28161 ft | 455 kts | 333° |
| 2026-05-05 11:13 | 50.36033 | 7.66562 | 28742 ft | 458 kts | 333° |
| 2026-05-05 11:13 | 50.38968 | 7.64563 | 29346 ft | 461 kts | 333° |
| 2026-05-05 11:14 | 50.41916 | 7.62543 | 29909 ft | 465 kts | 333° |
| 2026-05-05 11:14 | 50.44886 | 7.60502 | 30365 ft | 468 kts | 332° |
| 2026-05-05 11:14 | 50.47886 | 7.58436 | 30801 ft | 472 kts | 332° |
| 2026-05-05 11:14 | 50.50896 | 7.56360 | 31232 ft | 475 kts | 332° |
| 2026-05-05 11:15 | 50.53935 | 7.54253 | 31628 ft | 479 kts | 331° |
| 2026-05-05 11:15 | 50.56886 | 7.51816 | 32040 ft | 478 kts | 323° |
| 2026-05-05 11:15 | 50.59699 | 7.49019 | 32461 ft | 480 kts | 322° |
| 2026-05-05 11:15 | 50.62503 | 7.46145 | 32868 ft | 482 kts | 322° |
| 2026-05-05 11:16 | 50.65325 | 7.43245 | 33275 ft | 485 kts | 321° |
| 2026-05-05 11:16 | 50.68162 | 7.40328 | 33678 ft | 488 kts | 321° |
| 2026-05-05 11:16 | 50.70966 | 7.37323 | 34017 ft | 487 kts | 317° |
| 2026-05-05 11:16 | 50.73503 | 7.33815 | 34325 ft | 482 kts | 308° |
| 2026-05-05 11:17 | 50.75615 | 7.29754 | 34694 ft | 475 kts | 299° |
| 2026-05-05 11:17 | 50.77304 | 7.25305 | 35107 ft | 470 kts | 294° |
| 2026-05-05 11:17 | 50.78847 | 7.20757 | 35464 ft | 470 kts | 292° |
| 2026-05-05 11:17 | 50.80344 | 7.16150 | 35816 ft | 470 kts | 292° |
| 2026-05-05 11:18 | 50.81816 | 7.11538 | 36162 ft | 471 kts | 292° |
| 2026-05-05 11:18 | 50.83291 | 7.06900 | 36490 ft | 472 kts | 292° |
| 2026-05-05 11:18 | 50.84769 | 7.02267 | 36846 ft | 472 kts | 292° |
| 2026-05-05 11:18 | 50.86253 | 6.97631 | 37187 ft | 473 kts | 292° |
| 2026-05-05 11:19 | 50.87747 | 6.92983 | 37528 ft | 473 kts | 292° |
| 2026-05-05 11:19 | 50.89240 | 6.88340 | 37844 ft | 474 kts | 292° |
| 2026-05-05 11:19 | 50.90735 | 6.83685 | 38195 ft | 474 kts | 292° |
| 2026-05-05 11:19 | 50.92227 | 6.79035 | 38519 ft | 475 kts | 292° |
| 2026-05-05 11:20 | 50.93720 | 6.74368 | 38816 ft | 475 kts | 293° |
| 2026-05-05 11:20 | 50.95214 | 6.69687 | 39072 ft | 475 kts | 293° |
| 2026-05-05 11:20 | 50.96703 | 6.65017 | 39312 ft | 475 kts | 293° |
| 2026-05-05 11:20 | 50.98194 | 6.60332 | 39550 ft | 475 kts | 293° |
| 2026-05-05 11:21 | 50.99683 | 6.55642 | 39777 ft | 476 kts | 293° |
| 2026-05-05 11:21 | 51.02665 | 6.46224 | 39875 ft | 478 kts | 293° |
| 2026-05-05 11:22 | 51.05645 | 6.36781 | 39877 ft | 478 kts | 293° |
| 2026-05-05 11:22 | 51.08620 | 6.27313 | 39883 ft | 479 kts | 293° |
| 2026-05-05 11:23 | 51.11587 | 6.17834 | 39884 ft | 478 kts | 293° |
| 2026-05-05 11:23 | 51.14220 | 6.08149 | 39887 ft | 474 kts | 283° |
| 2026-05-05 11:24 | 51.16000 | 5.98053 | 39887 ft | 473 kts | 282° |
| 2026-05-05 11:24 | 51.17640 | 5.87894 | 39889 ft | 473 kts | 282° |
| 2026-05-05 11:25 | 51.19786 | 5.77946 | 39894 ft | 476 kts | 289° |
| 2026-05-05 11:25 | 51.22310 | 5.68190 | 39900 ft | 476 kts | 290° |
| 2026-05-05 11:26 | 51.24893 | 5.58440 | 39907 ft | 477 kts | 290° |
| 2026-05-05 11:26 | 51.27464 | 5.48686 | 39910 ft | 477 kts | 290° |
| 2026-05-05 11:27 | 51.30018 | 5.38911 | 39913 ft | 477 kts | 290° |
| 2026-05-05 11:27 | 51.32559 | 5.29123 | 39911 ft | 477 kts | 290° |
| 2026-05-05 11:28 | 51.34668 | 5.20962 | 39915 ft | 477 kts | 290° |
| 2026-05-05 11:28 | 51.37195 | 5.11148 | 39915 ft | 477 kts | 290° |
| 2026-05-05 11:29 | 51.39713 | 5.01330 | 39936 ft | 477 kts | 290° |
| 2026-05-05 11:29 | 51.42225 | 4.91489 | 39937 ft | 477 kts | 290° |
| 2026-05-05 11:30 | 51.44725 | 4.81654 | 39938 ft | 477 kts | 290° |
| 2026-05-05 11:30 | 51.47220 | 4.71794 | 39934 ft | 478 kts | 290° |
| 2026-05-05 11:31 | 51.49713 | 4.61900 | 39918 ft | 478 kts | 290° |
| 2026-05-05 11:31 | 51.52197 | 4.52000 | 39913 ft | 478 kts | 290° |
| 2026-05-05 11:32 | 51.54669 | 4.42101 | 39912 ft | 478 kts | 290° |
| 2026-05-05 11:32 | 51.57144 | 4.32145 | 39915 ft | 484 kts | 290° |
| 2026-05-05 11:33 | 51.59651 | 4.22010 | 39918 ft | 491 kts | 290° |
| 2026-05-05 11:33 | 51.62173 | 4.11776 | 39920 ft | 492 kts | 290° |
| 2026-05-05 11:34 | 51.64684 | 4.01542 | 39925 ft | 492 kts | 290° |
| 2026-05-05 11:34 | 51.67189 | 3.91281 | 39934 ft | 492 kts | 289° |
| 2026-05-05 11:35 | 51.69665 | 3.81088 | 39937 ft | 492 kts | 289° |
| 2026-05-05 11:35 | 51.72150 | 3.70812 | 39941 ft | 492 kts | 289° |
| 2026-05-05 11:36 | 51.74626 | 3.60524 | 39947 ft | 492 kts | 289° |
| 2026-05-05 11:36 | 51.77092 | 3.50232 | 39950 ft | 492 kts | 289° |
| 2026-05-05 11:37 | 51.79550 | 3.39920 | 39955 ft | 492 kts | 289° |
| 2026-05-05 11:37 | 51.82014 | 3.29537 | 39958 ft | 492 kts | 289° |
| 2026-05-05 11:38 | 51.84083 | 3.19067 | 39956 ft | 483 kts | 279° |
| 2026-05-05 11:38 | 51.84365 | 3.08463 | 39956 ft | 473 kts | 265° |
| 2026-05-05 11:39 | 51.83758 | 2.97895 | 39956 ft | 472 kts | 263° |
| 2026-05-05 11:39 | 51.83392 | 2.92618 | 39786 ft | 472 kts | 262° |
| 2026-05-05 11:39 | 51.83017 | 2.87341 | 39543 ft | 472 kts | 262° |
| 2026-05-05 11:39 | 51.82647 | 2.82088 | 39099 ft | 469 kts | 262° |
| 2026-05-05 11:40 | 51.82283 | 2.76854 | 38511 ft | 468 kts | 262° |
| 2026-05-05 11:40 | 51.81924 | 2.71631 | 37764 ft | 468 kts | 262° |
| 2026-05-05 11:40 | 51.81567 | 2.66404 | 37050 ft | 467 kts | 262° |
| 2026-05-05 11:40 | 51.81215 | 2.61187 | 36345 ft | 467 kts | 262° |
| 2026-05-05 11:41 | 51.80858 | 2.55986 | 35653 ft | 466 kts | 262° |
| 2026-05-05 11:41 | 51.80496 | 2.50793 | 34982 ft | 464 kts | 262° |
| 2026-05-05 11:41 | 51.80132 | 2.45613 | 34313 ft | 463 kts | 262° |
| 2026-05-05 11:41 | 51.79766 | 2.40454 | 33581 ft | 462 kts | 262° |
| 2026-05-05 11:42 | 51.79399 | 2.35295 | 32657 ft | 463 kts | 261° |
| 2026-05-05 11:42 | 51.79029 | 2.30115 | 31736 ft | 465 kts | 261° |
| 2026-05-05 11:42 | 51.78656 | 2.24931 | 30958 ft | 464 kts | 261° |
| 2026-05-05 11:42 | 51.78288 | 2.19762 | 30284 ft | 462 kts | 261° |
| 2026-05-05 11:43 | 51.77979 | 2.14607 | 29571 ft | 459 kts | 262° |
| 2026-05-05 11:43 | 51.77691 | 2.09498 | 28863 ft | 456 kts | 262° |
| 2026-05-05 11:43 | 51.77400 | 2.04425 | 28180 ft | 452 kts | 262° |
| 2026-05-05 11:43 | 51.77105 | 1.99389 | 27536 ft | 449 kts | 262° |
| 2026-05-05 11:44 | 51.76808 | 1.94402 | 26915 ft | 445 kts | 262° |
| 2026-05-05 11:44 | 51.76510 | 1.89446 | 26296 ft | 441 kts | 262° |
| 2026-05-05 11:44 | 51.76212 | 1.84540 | 25677 ft | 438 kts | 262° |
| 2026-05-05 11:44 | 51.75914 | 1.79673 | 25185 ft | 434 kts | 262° |
| 2026-05-05 11:45 | 51.75615 | 1.74829 | 24911 ft | 434 kts | 262° |
| 2026-05-05 11:45 | 51.75314 | 1.69993 | 24625 ft | 432 kts | 263° |
| 2026-05-05 11:45 | 51.75012 | 1.65172 | 23984 ft | 432 kts | 263° |
| 2026-05-05 11:45 | 51.74709 | 1.60374 | 23420 ft | 427 kts | 263° |
| 2026-05-05 11:46 | 51.74413 | 1.55633 | 22755 ft | 423 kts | 263° |
| 2026-05-05 11:46 | 51.74111 | 1.50921 | 22079 ft | 420 kts | 263° |
| 2026-05-05 11:46 | 51.73809 | 1.46255 | 21434 ft | 417 kts | 263° |
| 2026-05-05 11:46 | 51.73509 | 1.41627 | 20793 ft | 413 kts | 263° |
| 2026-05-05 11:47 | 51.73209 | 1.37035 | 20176 ft | 410 kts | 263° |
| 2026-05-05 11:47 | 51.72910 | 1.32481 | 19550 ft | 407 kts | 263° |
| 2026-05-05 11:47 | 51.72612 | 1.27961 | 18946 ft | 404 kts | 263° |
| 2026-05-05 11:47 | 51.72314 | 1.23478 | 18342 ft | 401 kts | 263° |
| 2026-05-05 11:48 | 51.71720 | 1.14598 | 17014 ft | 395 kts | 263° |
| 2026-05-05 11:48 | 51.71425 | 1.10221 | 16383 ft | 391 kts | 264° |
| 2026-05-05 11:48 | 51.71130 | 1.05869 | 15748 ft | 388 kts | 264° |
| 2026-05-05 11:49 | 51.70840 | 1.01616 | 15141 ft | 385 kts | 264° |
| 2026-05-05 11:49 | 51.70547 | 0.97346 | 14546 ft | 382 kts | 264° |
| 2026-05-05 11:49 | 51.70258 | 0.93125 | 14120 ft | 377 kts | 264° |
| 2026-05-05 11:49 | 51.69967 | 0.88914 | 13977 ft | 378 kts | 264° |
| 2026-05-05 11:50 | 51.69673 | 0.84704 | 13967 ft | 378 kts | 264° |
| 2026-05-05 11:50 | 51.69377 | 0.80492 | 13963 ft | 378 kts | 264° |
| 2026-05-05 11:50 | 51.69081 | 0.76291 | 13871 ft | 374 kts | 264° |
| 2026-05-05 11:50 | 51.68789 | 0.72163 | 13207 ft | 371 kts | 264° |
| 2026-05-05 11:51 | 51.68496 | 0.68031 | 12501 ft | 370 kts | 264° |
| 2026-05-05 11:51 | 51.68202 | 0.63937 | 11867 ft | 366 kts | 264° |
| 2026-05-05 11:51 | 51.67910 | 0.59871 | 11244 ft | 363 kts | 264° |
| 2026-05-05 11:51 | 51.67620 | 0.55864 | 10750 ft | 357 kts | 264° |
| 2026-05-05 11:52 | 51.67337 | 0.51962 | 10487 ft | 343 kts | 264° |
| 2026-05-05 11:52 | 51.67065 | 0.48215 | 10256 ft | 330 kts | 264° |
| 2026-05-05 11:52 | 51.66805 | 0.44614 | 10048 ft | 318 kts | 264° |
| 2026-05-05 11:52 | 51.66548 | 0.41132 | 9839 ft | 307 kts | 264° |
| 2026-05-05 11:53 | 51.66299 | 0.37788 | 9629 ft | 296 kts | 264° |
| 2026-05-05 11:53 | 51.65996 | 0.34542 | 9281 ft | 291 kts | 261° |
| 2026-05-05 11:53 | 51.65666 | 0.31361 | 8740 ft | 283 kts | 261° |
| 2026-05-05 11:53 | 51.65339 | 0.28254 | 8199 ft | 282 kts | 261° |
| 2026-05-05 11:54 | 51.65005 | 0.25101 | 7985 ft | 285 kts | 261° |
| 2026-05-05 11:54 | 51.64673 | 0.21963 | 7964 ft | 283 kts | 261° |
| 2026-05-05 11:54 | 51.64349 | 0.18904 | 7958 ft | 269 kts | 261° |
| 2026-05-05 11:54 | 51.64041 | 0.16021 | 7958 ft | 254 kts | 261° |
| 2026-05-05 11:55 | 51.63745 | 0.13250 | 7967 ft | 250 kts | 261° |
| 2026-05-05 11:55 | 51.63451 | 0.10490 | 7971 ft | 250 kts | 261° |
| 2026-05-05 11:55 | 51.63157 | 0.07733 | 7969 ft | 250 kts | 261° |
| 2026-05-05 11:55 | 51.62861 | 0.04976 | 7968 ft | 250 kts | 261° |
| 2026-05-05 11:56 | 51.62570 | 0.02253 | 7968 ft | 250 kts | 261° |
| 2026-05-05 11:56 | 51.62273 | -0.00501 | 7965 ft | 250 kts | 261° |
| 2026-05-05 11:56 | 51.61972 | -0.03300 | 7967 ft | 250 kts | 261° |
| 2026-05-05 11:56 | 51.61677 | -0.06062 | 7969 ft | 250 kts | 261° |
| 2026-05-05 11:57 | 51.61385 | -0.08781 | 7970 ft | 250 kts | 261° |
| 2026-05-05 11:57 | 51.61089 | -0.11538 | 7989 ft | 250 kts | 261° |
| 2026-05-05 11:57 | 51.60793 | -0.14292 | 7992 ft | 250 kts | 261° |
| 2026-05-05 11:57 | 51.60496 | -0.17054 | 7991 ft | 250 kts | 261° |
| 2026-05-05 11:58 | 51.60199 | -0.19815 | 7993 ft | 250 kts | 261° |
| 2026-05-05 11:58 | 51.59902 | -0.22567 | 7993 ft | 250 kts | 261° |
| 2026-05-05 11:58 | 51.59619 | -0.25329 | 7987 ft | 250 kts | 264° |
| 2026-05-05 11:58 | 51.59524 | -0.28115 | 7967 ft | 250 kts | 270° |
| 2026-05-05 11:59 | 51.59514 | -0.30912 | 7966 ft | 250 kts | 270° |
| 2026-05-05 11:59 | 51.59513 | -0.33700 | 7965 ft | 250 kts | 271° |
| 2026-05-05 11:59 | 51.59512 | -0.36492 | 7966 ft | 250 kts | 271° |
| 2026-05-05 11:59 | 51.59510 | -0.39283 | 7966 ft | 250 kts | 271° |
| 2026-05-05 12:00 | 51.59508 | -0.42077 | 7967 ft | 250 kts | 271° |
| 2026-05-05 12:00 | 51.59505 | -0.44864 | 7965 ft | 250 kts | 271° |
| 2026-05-05 12:00 | 51.59502 | -0.47657 | 7975 ft | 249 kts | 271° |
| 2026-05-05 12:00 | 51.59498 | -0.50439 | 7944 ft | 244 kts | 271° |
| 2026-05-05 12:01 | 51.59493 | -0.53134 | 7388 ft | 242 kts | 271° |
| 2026-05-05 12:01 | 51.59490 | -0.55865 | 6699 ft | 246 kts | 270° |
| 2026-05-05 12:01 | 51.59487 | -0.58612 | 6082 ft | 246 kts | 271° |
| 2026-05-05 12:01 | 51.59474 | -0.61359 | 5462 ft | 246 kts | 271° |
| 2026-05-05 12:02 | 51.59227 | -0.64064 | 4838 ft | 246 kts | 249° |
| 2026-05-05 12:02 | 51.58354 | -0.66415 | 4261 ft | 244 kts | 233° |
| 2026-05-05 12:02 | 51.57298 | -0.68531 | 3695 ft | 242 kts | 231° |
| 2026-05-05 12:02 | 51.56218 | -0.70586 | 3194 ft | 239 kts | 231° |
| 2026-05-05 12:03 | 51.55140 | -0.72608 | 2698 ft | 236 kts | 230° |
| 2026-05-05 12:03 | 51.53803 | -0.74126 | 2527 ft | 239 kts | 200° |
| 2026-05-05 12:03 | 51.52174 | -0.74603 | 2493 ft | 238 kts | 183° |
| 2026-05-05 12:03 | 51.50535 | -0.74421 | 2489 ft | 237 kts | 161° |
| 2026-05-05 12:04 | 51.49200 | -0.73105 | 2480 ft | 214 kts | 130° |
| 2026-05-05 12:04 | 51.48336 | -0.71369 | 2496 ft | 189 kts | 122° |
| 2026-05-05 12:04 | 51.47621 | -0.69726 | 2488 ft | 167 kts | 120° |
| 2026-05-05 12:04 | 51.47293 | -0.68152 | 2481 ft | 143 kts | 79° |
| 2026-05-05 12:05 | 51.47467 | -0.66627 | 2389 ft | 138 kts | 74° |
| 2026-05-05 12:05 | 51.47616 | -0.65130 | 2173 ft | 134 kts | 80° |
| 2026-05-05 12:05 | 51.47676 | -0.63665 | 2007 ft | 130 kts | 82° |
| 2026-05-05 12:05 | 51.47700 | -0.62217 | 1827 ft | 130 kts | 84° |
| 2026-05-05 12:06 | 51.47703 | -0.60763 | 1639 ft | 131 kts | 85° |
| 2026-05-05 12:06 | 51.47707 | -0.59303 | 1463 ft | 131 kts | 86° |
| 2026-05-05 12:06 | 51.47713 | -0.57845 | 1263 ft | 129 kts | 85° |
| 2026-05-05 12:06 | 51.47713 | -0.56400 | 1123 ft | 130 kts | 86° |
| 2026-05-05 12:07 | 51.47733 | -0.54934 | 874 ft | 131 kts | 84° |
| 2026-05-05 12:07 | 51.47739 | -0.53472 | 735 ft | 132 kts | 87° |
| 2026-05-05 12:07 | 51.47735 | -0.52005 | 512 ft | 129 kts | 86° |
| 2026-05-05 12:07 | 51.47744 | -0.50584 | 355 ft | 127 kts | 87° |
| 2026-05-05 12:08 | 51.47750 | -0.49169 | 230 ft | 128 kts | 85° |
| 2026-05-05 12:08 | 51.47751 | -0.47723 | 104 ft | 130 kts | 87° |
| 2026-05-05 12:08 | 51.47758 | -0.46363 | 205 ft | 119 kts | 86° |
| 2026-05-05 12:08 | 51.47771 | -0.44840 | 931 ft | 153 kts | 85° |
| 2026-05-05 12:09 | 51.47798 | -0.42968 | 1914 ft | 181 kts | 84° |
| 2026-05-05 12:09 | 51.48050 | -0.40724 | 2470 ft | 239 kts | 64° |
| 2026-05-05 12:09 | 51.49290 | -0.38448 | 2524 ft | 303 kts | 34° |
| 2026-05-05 12:09 | 51.51188 | -0.37197 | 2490 ft | 286 kts | 15° |
| 2026-05-05 12:10 | 51.53072 | -0.36562 | 2483 ft | 268 kts | 5° |
| 2026-05-05 12:10 | 51.54825 | -0.37080 | 2579 ft | 249 kts | 335° |
| 2026-05-05 12:10 | 51.56131 | -0.38852 | 2915 ft | 254 kts | 308° |
| 2026-05-05 12:10 | 51.56816 | -0.41489 | 2998 ft | 261 kts | 282° |
| 2026-05-05 12:11 | 51.56925 | -0.44419 | 3000 ft | 264 kts | 272° |
| 2026-05-05 12:11 | 51.56895 | -0.47373 | 2995 ft | 265 kts | 270° |
| 2026-05-05 12:11 | 51.56735 | -0.50327 | 2993 ft | 267 kts | 259° |
| 2026-05-05 12:11 | 51.56183 | -0.53189 | 2993 ft | 268 kts | 252° |
| 2026-05-05 12:12 | 51.55530 | -0.55986 | 2993 ft | 268 kts | 251° |
| 2026-05-05 12:12 | 51.54868 | -0.58781 | 2995 ft | 267 kts | 251° |
| 2026-05-05 12:12 | 51.54206 | -0.61568 | 2995 ft | 267 kts | 251° |
| 2026-05-05 12:12 | 51.53546 | -0.64329 | 2894 ft | 260 kts | 251° |
| 2026-05-05 12:13 | 51.52896 | -0.67033 | 2577 ft | 261 kts | 250° |
| 2026-05-05 12:13 | 51.52151 | -0.69708 | 2486 ft | 266 kts | 239° |
| 2026-05-05 12:13 | 51.50821 | -0.71760 | 2492 ft | 269 kts | 211° |
| 2026-05-05 12:13 | 51.49082 | -0.72578 | 2486 ft | 252 kts | 178° |
| 2026-05-05 12:14 | 51.48006 | -0.72216 | 2482 ft | 230 kts | 153° |
| 2026-05-05 12:14 | 51.46841 | -0.69941 | 2497 ft | 181 kts | 96° |
| 2026-05-05 12:14 | 51.47056 | -0.68174 | 2486 ft | 149 kts | 63° |
| 2026-05-05 12:14 | 51.47336 | -0.66680 | 2403 ft | 135 kts | 72° |
| 2026-05-05 12:15 | 51.47464 | -0.65717 | 2264 ft | 132 kts | 76° |
| 2026-05-05 12:15 | 51.47595 | -0.64287 | 2065 ft | 128 kts | 78° |
| 2026-05-05 12:15 | 51.47665 | -0.62847 | 1893 ft | 130 kts | 83° |
| 2026-05-05 12:15 | 51.47693 | -0.61376 | 1722 ft | 130 kts | 85° |
| 2026-05-05 12:16 | 51.47705 | -0.59940 | 1540 ft | 131 kts | 85° |
| 2026-05-05 12:16 | 51.47709 | -0.58482 | 1359 ft | 130 kts | 85° |
| 2026-05-05 12:16 | 51.47716 | -0.57038 | 1194 ft | 131 kts | 84° |
| 2026-05-05 12:16 | 51.47723 | -0.55583 | 973 ft | 130 kts | 86° |
| 2026-05-05 12:17 | 51.47728 | -0.54126 | 806 ft | 131 kts | 86° |
| 2026-05-05 12:17 | 51.47734 | -0.52678 | 642 ft | 130 kts | 86° |
| 2026-05-05 12:17 | 51.47741 | -0.51256 | 430 ft | 125 kts | 88° |
| 2026-05-05 12:17 | 51.47741 | -0.49831 | 273 ft | 130 kts | 86° |
| 2026-05-05 12:18 | 51.47752 | -0.48385 | 126 ft | 130 kts | 87° |
| 2026-05-05 12:18 | 51.47756 | -0.47035 | 97 ft | 104 kts | 89° |
| 2026-05-05 12:18 | 51.47764 | -0.46072 | 93 ft | 73 kts | 89° |
| 2026-05-05 12:18 | 51.47747 | -0.45517 | 93 ft | 32 kts | 114° |
| 2026-05-05 12:19 | 51.47659 | -0.45463 | 93 ft | 6 kts | 184° |
| 2026-05-05 12:19 | 51.47646 | -0.45464 | 93 ft | 3 kts | 184° |
| 2026-05-05 12:19 | 51.47622 | -0.45479 | 96 ft | 2 kts | 217° |
| 2026-05-05 12:19 | 51.47608 | -0.45507 | 94 ft | 6 kts | 234° |
| 2026-05-05 12:20 | 51.47596 | -0.45601 | 96 ft | 12 kts | 267° |
| 2026-05-05 12:20 | 51.47594 | -0.45733 | 96 ft | 10 kts | 270° |
| 2026-05-05 12:20 | 51.47590 | -0.45766 | 95 ft | 1 kts | 233° |
| 2026-05-05 12:20 | 51.47558 | -0.45756 | 96 ft | 8 kts | 167° |
| 2026-05-05 12:21 | 51.47516 | -0.45786 | 96 ft | 5 kts | 256° |
| 2026-05-05 12:21 | 51.47517 | -0.45897 | 93 ft | 16 kts | 270° |
| 2026-05-05 12:21 | 51.47518 | -0.46106 | 93 ft | 20 kts | 270° |
| 2026-05-05 12:21 | 51.47499 | -0.46268 | 95 ft | 10 kts | 237° |
| 2026-05-05 12:22 | 51.47453 | -0.46306 | 94 ft | 1 kts | 196° |
| 2026-05-05 12:22 | 51.47440 | -0.46313 | 95 ft | 1 kts | 199° |
| 2026-05-05 12:22 | 51.47433 | -0.46317 | 94 ft | 0 kts | 199° |
| 2026-05-05 12:22 | 51.47431 | -0.46318 | 93 ft | 0 kts | 199° |